Eros — FAD6416 — position and weather

sailwx.info

Track history (hours):
 
Tides and Currents Weather Stations Pressure Air Temp Water Temp Dewpoint Dewpoint Depression Visibility Wind Speed Wind Dir Waves Ship Positions

Eros

Last reported at 2018-Jul-18 12:44 UTC. Time now 2018-Jul-19 09:37 UTC.
Position N 37°04' E 025°40'.

Length 15 m.

Type: Sailing vessel. MMSI: 227413960.

Date/timePositionNaut miles runAvg speedWind from/ knotsBaromVisibWave heightAir tempDewpointWater temp
2018-Jul-18 12:44N 37°04' E 025°40'312.4
2018-Jul-18 12:28N 37°07' E 025°41'  
2018-Jul-11 09:10N 36°60' E 025°14'1 5.5
2018-Jul-11 09:00N 37°00' E 025°15'3 6.0
2018-Jul-11 08:30N 37°02' E 025°18'3 5.6
2018-Jul-11 07:59N 37°05' E 025°19'2 3.8
2018-Jul-11 07:26N 37°06' E 025°21'1 2.5
2018-Jul-11 06:58N 37°06' E 025°22'0 0.0
2018-Jul-11 06:28N 37°06' E 025°22'0 0.0
2018-Jul-10 17:19N 37°06' E 025°22'0 0.4
2018-Jul-10 17:00N 37°06' E 025°22'14 5.1
2018-Jul-10 14:18N 37°07' E 025°40'  
Track history (hours):
 
Tides and Currents Weather Stations Pressure Air Temp Water Temp Dewpoint Dewpoint Depression Visibility Wind Speed Wind Dir Waves Ship Positions

Eros

Last reported at 2018-Jul-18 12:44 UTC. Time now 2018-Jul-19 09:37 UTC.
Position N 37°04' E 025°40'.

Length 15 m.

Type: Sailing vessel. MMSI: 227413960.

Date/timePositionNaut miles runAvg speedWind from/ knotsBaromVisibWave heightAir tempDewpointWater temp
2018-Jul-18 12:44N 37°04' E 025°40'312.4
2018-Jul-18 12:28N 37°07' E 025°41'  
2018-Jul-11 09:10N 36°60' E 025°14'1 5.5
2018-Jul-11 09:00N 37°00' E 025°15'3 6.0
2018-Jul-11 08:30N 37°02' E 025°18'3 5.6
2018-Jul-11 07:59N 37°05' E 025°19'2 3.8
2018-Jul-11 07:26N 37°06' E 025°21'1 2.5
2018-Jul-11 06:58N 37°06' E 025°22'0 0.0
2018-Jul-11 06:28N 37°06' E 025°22'0 0.0
2018-Jul-10 17:19N 37°06' E 025°22'0 0.4
2018-Jul-10 17:00N 37°06' E 025°22'14 5.1
2018-Jul-10 14:18N 37°07' E 025°40'  

Dump ship's entire track history